createdAt,value
2023-03-28T00:01:01.616Z,5.50
2023-03-28T00:03:29.870Z,6.23
2023-03-28T00:06:02.662Z,7.50
2023-03-28T00:08:30.251Z,3.30
2023-03-28T00:11:15.696Z,4.80
2023-03-28T00:13:42.612Z,6.10
2023-03-28T00:16:13.169Z,5.60
2023-03-28T00:18:41.666Z,3.47
2023-03-28T00:21:20.563Z,4.87
2023-03-28T00:23:52.651Z,3.30
2023-03-28T00:26:20.902Z,7.77
2023-03-28T00:28:48.660Z,4.17
2023-03-28T00:31:15.970Z,3.10
2023-03-28T00:33:44.419Z,5.23
2023-03-28T00:36:11.420Z,3.37
2023-03-28T00:38:39.104Z,3.70
2023-03-28T00:41:09.942Z,3.13
2023-03-28T00:43:39.600Z,4.43
2023-03-28T00:46:30.013Z,6.67
2023-03-28T00:49:11.193Z,4.23
2023-03-28T00:51:45.245Z,3.53
2023-03-28T00:54:16.187Z,2.67
2023-03-28T00:56:47.539Z,7.50
2023-03-28T00:59:19.439Z,3.13
2023-03-28T01:01:47.537Z,5.23
2023-03-28T01:04:20.670Z,2.43
2023-03-28T01:06:52.310Z,3.73
2023-03-28T01:09:21.308Z,1.77
2023-03-28T01:11:49.373Z,2.67
2023-03-28T01:14:20.860Z,3.63
2023-03-28T01:16:48.089Z,1.93
2023-03-28T01:19:27.433Z,4.40
2023-03-28T01:22:25.832Z,3.43
2023-03-28T01:25:30.078Z,1.33
2023-03-28T01:28:10.630Z,4.40
2023-03-28T01:30:56.657Z,2.37
2023-03-28T01:33:29.665Z,4.40
2023-03-28T01:36:34.061Z,3.07
2023-03-28T01:39:05.494Z,2.30
2023-03-28T01:41:46.379Z,3.00
2023-03-28T01:44:33.434Z,2.03
2023-03-28T01:47:22.662Z,3.50
2023-03-28T01:50:03.486Z,1.83
2023-03-28T01:52:41.413Z,3.60
2023-03-28T01:55:12.440Z,2.67
2023-03-28T01:57:53.458Z,3.67
2023-03-28T02:00:24.558Z,3.40
2023-03-28T02:03:00.911Z,3.13
2023-03-28T02:05:31.887Z,1.60
2023-03-28T02:08:01.644Z,1.27
2023-03-28T02:10:31.968Z,3.17
2023-03-28T02:13:12.737Z,2.20
2023-03-28T02:15:42.893Z,2.50
2023-03-28T02:18:20.819Z,3.93
2023-03-28T02:20:54.777Z,2.20
2023-03-28T02:23:27.280Z,4.77
2023-03-28T02:25:54.258Z,1.40
2023-03-28T02:28:22.742Z,2.47
2023-03-28T02:30:50.206Z,1.73
2023-03-28T02:33:41.735Z,2.07
2023-03-28T02:36:27.741Z,2.63
2023-03-28T02:39:32.143Z,3.73
2023-03-28T02:42:07.871Z,1.70
2023-03-28T02:44:37.830Z,2.33
2023-03-28T02:47:11.134Z,1.50
2023-03-28T02:49:56.201Z,2.60
2023-03-28T02:52:40.421Z,3.00
2023-03-28T02:55:33.882Z,1.83
2023-03-28T02:58:11.765Z,1.20
2023-03-28T03:00:39.954Z,1.93
2023-03-28T03:03:10.707Z,2.47
2023-03-28T03:05:38.351Z,2.57
2023-03-28T03:08:05.572Z,3.63
2023-03-28T03:10:32.449Z,2.47
2023-03-28T03:12:59.507Z,3.03
2023-03-28T03:15:31.130Z,1.90
2023-03-28T03:17:59.449Z,4.80
2023-03-28T03:20:27.710Z,4.33
2023-03-28T03:22:55.709Z,2.37
2023-03-28T03:25:22.576Z,2.37
2023-03-28T03:27:49.469Z,3.73
2023-03-28T03:30:16.378Z,5.10
2023-03-28T03:32:44.409Z,3.97
2023-03-28T03:35:11.657Z,4.60
2023-03-28T03:37:39.036Z,4.73
2023-03-28T03:40:06.898Z,5.53
2023-03-28T03:42:33.995Z,4.30
2023-03-28T03:45:01.068Z,4.00
2023-03-28T03:47:28.029Z,4.63
2023-03-28T03:49:54.951Z,5.03
2023-03-28T03:52:21.988Z,7.87
2023-03-28T03:54:48.787Z,4.20
2023-03-28T03:57:15.851Z,6.60
2023-03-28T03:59:42.788Z,5.57
2023-03-28T04:02:09.675Z,7.87
2023-03-28T04:04:37.198Z,9.40
2023-03-28T04:07:04.196Z,5.17
2023-03-28T04:09:31.934Z,4.10
2023-03-28T04:11:58.668Z,3.63
2023-03-28T04:14:25.454Z,5.43
2023-03-28T04:16:54.091Z,6.60
2023-03-28T04:19:21.423Z,5.00
2023-03-28T04:21:49.335Z,3.40
2023-03-28T04:24:16.713Z,5.60
2023-03-28T04:26:46.033Z,8.50
2023-03-28T04:29:13.240Z,3.97
2023-03-28T04:31:40.449Z,4.77
2023-03-28T04:34:07.769Z,7.30
2023-03-28T04:36:34.859Z,8.10
2023-03-28T04:39:05.013Z,7.20
2023-03-28T04:41:34.635Z,8.60
2023-03-28T04:44:01.843Z,4.47
2023-03-28T04:46:31.713Z,4.67
2023-03-28T04:48:58.704Z,4.70
2023-03-28T04:51:25.833Z,5.37
2023-03-28T04:53:52.650Z,10.17
2023-03-28T04:56:19.815Z,15.43
2023-03-28T04:58:46.829Z,18.80
2023-03-28T05:01:14.021Z,16.07
2023-03-28T05:03:41.241Z,15.07
2023-03-28T05:06:08.494Z,22.73
2023-03-28T05:08:35.395Z,15.43
2023-03-28T05:11:02.741Z,11.57
2023-03-28T05:13:30.256Z,16.70
2023-03-28T05:15:57.282Z,13.03
2023-03-28T05:18:24.419Z,14.53
2023-03-28T05:20:51.750Z,17.97
2023-03-28T05:23:18.670Z,15.17
2023-03-28T05:25:53.555Z,11.87
2023-03-28T05:28:21.490Z,15.57
2023-03-28T05:30:48.389Z,13.63
2023-03-28T05:33:15.617Z,16.13
2023-03-28T05:35:42.750Z,14.37
2023-03-28T05:38:09.766Z,16.10
2023-03-28T05:40:37.444Z,14.57
2023-03-28T05:43:04.779Z,12.40
2023-03-28T05:45:31.720Z,14.90
2023-03-28T05:47:58.693Z,13.27
2023-03-28T05:50:26.603Z,18.37
2023-03-28T05:52:53.597Z,11.47
2023-03-28T05:55:20.489Z,14.57
2023-03-28T05:57:47.421Z,11.53
2023-03-28T06:00:15.202Z,9.43
2023-03-28T06:02:43.554Z,9.90
2023-03-28T06:05:14.261Z,10.73
2023-03-28T06:07:42.929Z,11.10
2023-03-28T06:10:12.124Z,9.53
2023-03-28T06:12:39.453Z,9.20
2023-03-28T06:15:07.570Z,8.90
2023-03-28T06:17:34.815Z,8.53
2023-03-28T06:20:01.742Z,7.10
2023-03-28T06:22:29.250Z,7.07
2023-03-28T06:24:56.277Z,9.27
2023-03-28T06:27:23.267Z,9.03
2023-03-28T06:29:50.738Z,7.43
2023-03-28T06:32:19.333Z,10.27
2023-03-28T06:34:46.564Z,9.13
2023-03-28T06:37:13.540Z,7.33
2023-03-28T06:39:40.986Z,12.10
2023-03-28T06:42:08.233Z,9.87
2023-03-28T06:44:35.262Z,6.60
2023-03-28T06:47:02.933Z,6.90
2023-03-28T06:49:29.999Z,5.90
2023-03-28T06:51:59.845Z,5.20
2023-03-28T06:54:26.819Z,5.50
2023-03-28T06:56:53.777Z,6.40
2023-03-28T06:59:20.872Z,7.10
2023-03-28T07:01:47.876Z,9.17
2023-03-28T07:04:14.785Z,4.67
2023-03-28T07:06:41.686Z,6.57
2023-03-28T07:09:08.772Z,6.43
2023-03-28T07:11:35.608Z,7.37
2023-03-28T07:14:02.575Z,4.73
2023-03-28T07:16:31.940Z,6.20
2023-03-28T07:18:58.866Z,5.27
2023-03-28T07:21:25.812Z,4.77
2023-03-28T07:23:52.662Z,7.57
2023-03-28T07:26:19.713Z,9.13
2023-03-28T07:28:46.870Z,5.37
2023-03-28T07:31:13.874Z,6.33
2023-03-28T07:33:41.082Z,6.23
2023-03-28T07:36:17.155Z,8.83
2023-03-28T07:38:46.560Z,5.93
2023-03-28T07:41:15.106Z,4.77
2023-03-28T07:43:42.300Z,6.40
2023-03-28T07:46:11.566Z,6.53
2023-03-28T07:48:38.940Z,7.43
2023-03-28T07:51:10.380Z,7.73
2023-03-28T07:53:38.186Z,6.07
2023-03-28T07:56:10.813Z,4.57
2023-03-28T07:58:39.272Z,6.33
2023-03-28T08:01:12.503Z,8.13
2023-03-28T08:03:40.648Z,7.30
2023-03-28T08:06:28.788Z,6.10
2023-03-28T08:08:58.315Z,7.23
2023-03-28T08:11:25.325Z,8.57
2023-03-28T08:13:52.427Z,5.93
2023-03-28T08:16:19.589Z,5.23
2023-03-28T08:18:48.765Z,8.23
2023-03-28T08:21:21.442Z,8.37
2023-03-28T08:23:48.622Z,3.37
2023-03-28T08:26:15.604Z,5.63
2023-03-28T08:28:42.461Z,3.67
2023-03-28T08:31:14.599Z,4.83
2023-03-28T08:33:43.490Z,7.50
2023-03-28T08:36:15.213Z,8.90
2023-03-28T08:38:43.327Z,6.80
2023-03-28T08:41:29.301Z,5.40
2023-03-28T08:44:14.234Z,3.73
2023-03-28T08:46:44.518Z,5.83
2023-03-28T08:49:20.704Z,4.73
2023-03-28T08:51:59.680Z,1.97
2023-03-28T08:54:31.958Z,2.07
2023-03-28T08:57:03.093Z,2.73
2023-03-28T08:59:40.945Z,3.50
2023-03-28T09:02:27.031Z,3.20
2023-03-28T09:05:02.118Z,8.93
2023-03-28T09:07:57.694Z,4.63
2023-03-28T09:10:42.713Z,3.80
2023-03-28T09:13:26.257Z,3.97
2023-03-28T09:16:03.386Z,4.20
2023-03-28T09:19:15.658Z,3.77
2023-03-28T09:22:04.913Z,3.57
2023-03-28T09:24:39.805Z,5.07
2023-03-28T09:27:18.436Z,6.33
2023-03-28T09:29:47.597Z,6.77
2023-03-28T09:32:26.912Z,4.47
2023-03-28T09:34:53.932Z,4.57
2023-03-28T09:37:41.087Z,4.67
2023-03-28T09:40:23.096Z,6.53
2023-03-28T09:43:09.373Z,4.10
2023-03-28T09:45:36.421Z,5.57
2023-03-28T09:48:06.416Z,4.97
2023-03-28T09:50:33.347Z,3.30
2023-03-28T09:53:00.465Z,3.70
2023-03-28T09:55:30.196Z,2.33
2023-03-28T09:58:06.761Z,6.27
2023-03-28T10:00:40.566Z,3.27
2023-03-28T10:03:23.583Z,2.30
2023-03-28T10:05:51.942Z,3.00
2023-03-28T10:08:37.100Z,5.90
2023-03-28T10:11:07.167Z,3.10
2023-03-28T10:13:40.791Z,2.93
2023-03-28T10:16:10.680Z,3.47
2023-03-28T10:18:40.937Z,2.50
2023-03-28T10:21:21.187Z,3.33
2023-03-28T10:24:08.297Z,4.30
2023-03-28T10:26:35.393Z,5.47
2023-03-28T10:29:06.497Z,5.53
2023-03-28T10:31:34.240Z,4.57
2023-03-28T10:34:05.933Z,3.77
2023-03-28T10:36:40.480Z,3.73
2023-03-28T10:39:33.785Z,4.70
2023-03-28T10:42:02.134Z,4.40
2023-03-28T10:44:37.008Z,4.03
2023-03-28T10:47:08.685Z,3.27
2023-03-28T10:49:47.477Z,4.47
2023-03-28T10:52:52.663Z,4.43
2023-03-28T10:55:26.828Z,6.23
2023-03-28T10:58:11.728Z,6.77
2023-03-28T11:00:43.208Z,7.00
2023-03-28T11:03:30.080Z,3.97
2023-03-28T11:06:19.566Z,3.77
2023-03-28T11:09:04.046Z,5.20
2023-03-28T11:11:46.497Z,4.37
2023-03-28T11:14:25.934Z,4.03
2023-03-28T11:17:27.624Z,8.13
2023-03-28T11:20:17.776Z,7.83
2023-03-28T11:23:06.327Z,5.47
2023-03-28T11:25:55.258Z,5.43
2023-03-28T11:28:31.371Z,7.43
2023-03-28T11:31:00.839Z,4.63
2023-03-28T11:34:18.200Z,5.77
2023-03-28T11:37:04.227Z,8.83
2023-03-28T11:39:44.054Z,5.00
2023-03-28T11:42:27.834Z,5.57
2023-03-28T11:45:08.195Z,5.57
2023-03-28T11:47:45.361Z,5.90
2023-03-28T11:50:38.435Z,8.17
2023-03-28T11:53:13.717Z,6.87
2023-03-28T11:55:49.346Z,6.73
2023-03-28T11:58:26.625Z,6.43
2023-03-28T12:01:19.579Z,7.17
2023-03-28T12:04:08.172Z,9.20
2023-03-28T12:06:52.163Z,8.57
2023-03-28T12:09:54.529Z,6.67
2023-03-28T12:12:55.669Z,5.90
2023-03-28T12:15:47.411Z,8.83
2023-03-28T12:18:26.536Z,7.07
2023-03-28T12:21:04.086Z,5.13
2023-03-28T12:23:33.917Z,5.27
2023-03-28T12:26:13.328Z,5.03
2023-03-28T12:28:43.956Z,5.80
2023-03-28T12:31:22.604Z,4.93
2023-03-28T12:34:02.772Z,6.10
2023-03-28T12:37:02.683Z,8.50
2023-03-28T12:39:56.015Z,7.37
2023-03-28T12:42:25.229Z,5.70
2023-03-28T12:45:04.465Z,9.17
2023-03-28T12:47:43.300Z,7.63
2023-03-28T12:50:25.304Z,8.60
2023-03-28T12:52:53.506Z,10.43
2023-03-28T12:55:29.373Z,16.97
2023-03-28T12:58:28.731Z,7.27
2023-03-28T13:01:07.551Z,8.63
2023-03-28T13:03:58.518Z,4.50
2023-03-28T13:06:28.603Z,12.13
2023-03-28T13:09:30.152Z,7.07
2023-03-28T13:12:21.287Z,12.93
2023-03-28T13:15:27.921Z,9.67
2023-03-28T13:18:22.518Z,8.43
2023-03-28T13:20:52.199Z,7.87
2023-03-28T13:23:27.588Z,9.63
2023-03-28T13:26:00.781Z,8.80
2023-03-28T13:28:51.348Z,7.67
2023-03-28T13:31:18.281Z,6.60
2023-03-28T13:34:01.964Z,10.03
2023-03-28T13:36:34.115Z,10.53
2023-03-28T13:39:19.037Z,9.23
2023-03-28T13:41:45.928Z,12.93
2023-03-28T13:44:16.489Z,10.27
2023-03-28T13:46:47.785Z,11.13
2023-03-28T13:49:19.299Z,13.67
2023-03-28T13:51:49.222Z,9.50
2023-03-28T13:54:16.507Z,7.03
2023-03-28T13:56:46.974Z,8.03
2023-03-28T13:59:19.609Z,7.87
2023-03-28T14:01:54.145Z,9.67
2023-03-28T14:04:27.972Z,7.87
2023-03-28T14:06:55.894Z,8.73
2023-03-28T14:09:28.860Z,6.60
2023-03-28T14:12:00.526Z,8.17
2023-03-28T14:14:37.936Z,9.80
2023-03-28T14:17:07.990Z,6.53
2023-03-28T14:19:44.866Z,11.33
2023-03-28T14:22:21.368Z,11.73
2023-03-28T14:24:52.256Z,7.40
2023-03-28T14:27:41.033Z,11.23
2023-03-28T14:30:31.198Z,9.17
2023-03-28T14:33:18.730Z,8.37
2023-03-28T14:35:57.634Z,7.07
2023-03-28T14:38:32.501Z,6.43
2023-03-28T14:41:08.822Z,7.27
2023-03-28T14:43:36.872Z,11.00
2023-03-28T14:46:08.363Z,8.07
2023-03-28T14:48:37.306Z,11.80
2023-03-28T14:51:06.126Z,8.03
2023-03-28T14:53:41.341Z,10.33
2023-03-28T14:56:11.703Z,9.60
2023-03-28T14:58:45.169Z,6.03
2023-03-28T15:01:23.656Z,11.23
2023-03-28T15:04:00.182Z,7.07
2023-03-28T15:06:30.741Z,7.27
2023-03-28T15:09:10.059Z,9.30
2023-03-28T15:11:41.512Z,8.77
2023-03-28T15:14:24.482Z,5.50
2023-03-28T15:16:54.353Z,8.27
2023-03-28T15:19:29.116Z,11.23
2023-03-28T15:22:04.466Z,6.87
2023-03-28T15:24:32.181Z,10.97
2023-03-28T15:27:04.000Z,11.07
2023-03-28T15:29:35.989Z,7.50
2023-03-28T15:32:11.948Z,8.53
2023-03-28T15:35:06.098Z,10.97
2023-03-28T15:37:45.071Z,7.00
2023-03-28T15:40:22.552Z,11.27
2023-03-28T15:42:51.191Z,9.67
2023-03-28T15:45:24.624Z,7.73
2023-03-28T15:47:55.986Z,9.73
2023-03-28T15:50:33.572Z,4.40
2023-03-28T15:53:05.966Z,7.73
2023-03-28T15:55:34.293Z,5.87
2023-03-28T15:58:04.050Z,7.37
2023-03-28T16:00:55.479Z,8.27
2023-03-28T16:03:25.155Z,4.73
2023-03-28T16:06:10.196Z,6.23
2023-03-28T16:08:41.359Z,8.27
2023-03-28T16:11:26.984Z,8.07
2023-03-28T16:13:54.277Z,6.47
2023-03-28T16:16:29.848Z,4.10
2023-03-28T16:18:56.719Z,4.07
2023-03-28T16:21:23.388Z,4.17
2023-03-28T16:23:50.287Z,6.73
2023-03-28T16:26:17.130Z,5.57
2023-03-28T16:28:48.726Z,5.53
2023-03-28T16:31:15.946Z,10.40
2023-03-28T16:33:42.928Z,7.03
2023-03-28T16:36:12.940Z,6.70
2023-03-28T16:38:43.080Z,10.43
2023-03-28T16:41:09.950Z,6.03
2023-03-28T16:43:38.397Z,11.40
2023-03-28T16:46:05.756Z,9.33
2023-03-28T16:48:34.690Z,7.07
2023-03-28T16:51:08.379Z,6.43
2023-03-28T16:53:37.053Z,11.10
2023-03-28T16:56:07.082Z,8.33
2023-03-28T16:58:33.970Z,9.67
2023-03-28T17:01:08.053Z,7.40
2023-03-28T17:03:36.258Z,7.17
2023-03-28T17:06:10.053Z,8.03
2023-03-28T17:08:37.210Z,8.90
2023-03-28T17:11:09.470Z,6.57
2023-03-28T17:13:37.566Z,8.70
2023-03-28T17:16:05.000Z,11.43
2023-03-28T17:18:32.179Z,10.20
2023-03-28T17:21:07.328Z,10.40
2023-03-28T17:23:38.958Z,9.83
2023-03-28T17:26:08.837Z,8.10
2023-03-28T17:28:39.269Z,8.67
2023-03-28T17:31:12.239Z,7.07
2023-03-28T17:33:42.626Z,9.90
2023-03-28T17:36:29.915Z,9.47
2023-03-28T17:39:00.706Z,8.53
2023-03-28T17:41:28.236Z,8.30
2023-03-28T17:43:57.185Z,7.93
2023-03-28T17:46:24.949Z,8.13
2023-03-28T17:48:52.137Z,10.77
2023-03-28T17:51:19.355Z,12.83
2023-03-28T17:53:47.304Z,10.33
2023-03-28T17:56:16.736Z,9.47
2023-03-28T17:58:44.612Z,10.20
2023-03-28T18:01:17.522Z,9.73
2023-03-28T18:03:46.260Z,4.17
2023-03-28T18:06:14.154Z,9.50
2023-03-28T18:08:42.870Z,9.50
2023-03-28T18:11:14.292Z,14.13
2023-03-28T18:13:41.413Z,10.60
2023-03-28T18:16:11.240Z,9.47
2023-03-28T18:18:39.006Z,14.10
2023-03-28T18:21:08.550Z,11.23
2023-03-28T18:23:36.360Z,4.77
2023-03-28T18:26:04.035Z,6.10
2023-03-28T18:28:31.098Z,8.73
2023-03-28T18:31:07.433Z,8.87
2023-03-28T18:33:35.517Z,10.70
2023-03-28T18:36:02.694Z,7.20
2023-03-28T18:38:29.639Z,7.53
2023-03-28T18:40:57.486Z,6.67
2023-03-28T18:43:24.378Z,6.57
2023-03-28T18:45:55.182Z,5.57
2023-03-28T18:48:22.280Z,7.53
2023-03-28T18:50:49.337Z,6.97
2023-03-28T18:53:16.993Z,12.70
2023-03-28T18:55:44.115Z,8.27
2023-03-28T18:58:11.869Z,5.37
2023-03-28T19:00:38.885Z,7.50
2023-03-28T19:03:06.174Z,10.00
2023-03-28T19:05:39.093Z,7.50
2023-03-28T19:08:06.125Z,8.57
2023-03-28T19:10:32.870Z,7.33
2023-03-28T19:12:59.784Z,6.80
2023-03-28T19:15:27.259Z,9.93
2023-03-28T19:17:54.213Z,7.53
2023-03-28T19:20:21.233Z,5.47
2023-03-28T19:22:48.291Z,6.37
2023-03-28T19:25:16.356Z,9.23
2023-03-28T19:27:43.945Z,7.53
2023-03-28T19:30:11.000Z,6.87
2023-03-28T19:32:38.053Z,7.03
2023-03-28T19:35:05.426Z,5.73
2023-03-28T19:37:32.384Z,5.47
2023-03-28T19:39:59.493Z,5.93
2023-03-28T19:42:26.537Z,4.40
2023-03-28T19:44:54.495Z,7.20
2023-03-28T19:47:22.197Z,6.80
2023-03-28T19:49:49.579Z,7.60
2023-03-28T19:52:16.319Z,6.30
2023-03-28T19:54:43.384Z,4.50
2023-03-28T19:57:10.437Z,8.83
2023-03-28T19:59:37.470Z,7.73
2023-03-28T20:02:04.407Z,8.00
2023-03-28T20:04:31.940Z,5.90
2023-03-28T20:06:58.905Z,7.73
2023-03-28T20:09:26.094Z,8.90
2023-03-28T20:11:53.274Z,7.67
2023-03-28T20:14:21.479Z,4.03
2023-03-28T20:16:48.782Z,9.03
2023-03-28T20:19:18.293Z,6.50
2023-03-28T20:21:45.454Z,5.33
2023-03-28T20:24:12.590Z,5.03
2023-03-28T20:26:40.124Z,8.50
2023-03-28T20:29:10.393Z,8.70
2023-03-28T20:31:37.600Z,8.63
2023-03-28T20:34:04.674Z,5.80
2023-03-28T20:36:33.004Z,5.70
2023-03-28T20:39:01.691Z,4.83
2023-03-28T20:41:29.865Z,8.23
2023-03-28T20:44:03.726Z,4.67
2023-03-28T20:46:38.339Z,5.67
2023-03-28T20:49:06.524Z,10.33
2023-03-28T20:51:36.907Z,6.30
2023-03-28T20:54:05.442Z,6.27
2023-03-28T20:56:32.639Z,8.13
2023-03-28T20:58:59.782Z,10.53
2023-03-28T21:01:30.810Z,7.33
2023-03-28T21:03:59.139Z,6.43
2023-03-28T21:06:30.028Z,8.97
2023-03-28T21:09:01.991Z,6.07
2023-03-28T21:11:31.554Z,5.97
2023-03-28T21:14:00.237Z,8.93
2023-03-28T21:16:29.300Z,8.77
2023-03-28T21:18:56.776Z,6.77
2023-03-28T21:21:23.904Z,7.90
2023-03-28T21:23:53.344Z,8.07
2023-03-28T21:26:23.530Z,7.00
2023-03-28T21:28:52.641Z,5.97
2023-03-28T21:31:28.422Z,5.40
2023-03-28T21:33:59.967Z,5.80
2023-03-28T21:36:28.014Z,5.53
2023-03-28T21:38:56.301Z,6.47
2023-03-28T21:41:23.736Z,8.67
2023-03-28T21:43:53.017Z,7.67
2023-03-28T21:46:20.992Z,8.10
2023-03-28T21:48:48.754Z,8.73
2023-03-28T21:51:17.625Z,6.00
2023-03-28T21:53:44.924Z,9.13
2023-03-28T21:56:16.646Z,9.00
2023-03-28T21:58:43.833Z,7.83
2023-03-28T22:01:14.554Z,12.60
2023-03-28T22:03:41.725Z,8.87
2023-03-28T22:06:09.592Z,9.30
2023-03-28T22:08:36.846Z,9.23
2023-03-28T22:11:11.097Z,8.80
2023-03-28T22:13:39.109Z,8.23
2023-03-28T22:16:09.604Z,10.20
2023-03-28T22:18:39.176Z,8.90
2023-03-28T22:21:06.570Z,8.70
2023-03-28T22:23:33.815Z,8.80
2023-03-28T22:26:00.857Z,9.30
2023-03-28T22:28:27.706Z,9.93
2023-03-28T22:30:55.790Z,7.33
2023-03-28T22:33:23.712Z,9.47
2023-03-28T22:35:51.057Z,8.77
2023-03-28T22:38:19.632Z,11.30
2023-03-28T22:40:47.780Z,11.77
2023-03-28T22:43:16.389Z,9.67
2023-03-28T22:45:43.345Z,11.00
2023-03-28T22:48:16.444Z,12.20
2023-03-28T22:50:44.629Z,11.00
2023-03-28T22:55:39.762Z,12.63
2023-03-28T22:58:06.834Z,13.63
2023-03-28T23:00:34.438Z,10.33
2023-03-28T23:03:01.968Z,13.20
2023-03-28T23:05:29.200Z,15.20
2023-03-28T23:07:56.301Z,11.97
2023-03-28T23:10:29.024Z,13.50
2023-03-28T23:12:56.898Z,14.97
2023-03-28T23:15:24.036Z,16.60
2023-03-28T23:17:51.010Z,12.50
2023-03-28T23:20:19.255Z,13.43
2023-03-28T23:22:48.047Z,13.40
2023-03-28T23:25:17.346Z,13.90
2023-03-28T23:27:44.816Z,12.40
2023-03-28T23:30:14.043Z,11.10
2023-03-28T23:32:41.009Z,14.83
2023-03-28T23:35:10.016Z,12.40
2023-03-28T23:37:38.533Z,12.63
2023-03-28T23:40:06.715Z,16.10
2023-03-28T23:42:33.636Z,12.80
2023-03-28T23:45:00.931Z,11.97
2023-03-28T23:47:27.944Z,13.13
2023-03-28T23:49:54.668Z,14.43
2023-03-28T23:52:21.768Z,9.37
2023-03-28T23:54:48.865Z,12.80
2023-03-28T23:57:15.740Z,9.07
2023-03-28T23:59:42.596Z,10.63
